Golovin Airport


Codes: PAGL/GLV
Name: Golovin Airport
City: Golovin
Country: United States
Elevation: 59 ft.
Wikipedia:

Photos at Golovin Airport


   Photos courtesy of SpottingLog. You can add your own sightings and photos by signing up for a free trial today.



No photos found.

Weather at Golovin Airport


Time (UTC)DescriptionTempratureWindCloud coverageVisibilityPressureHumidity
25-Jun-2024 15:00Broken Clouds15°C4 mph, E52%10000m1012hPa62%
25-Jun-2024 18:00Broken Clouds16°C7 mph, E74%10000m1011hPa57%
25-Jun-2024 21:00Overcast Clouds17°C13 mph, SE100%10000m1011hPa62%
26-Jun-2024 00:00Overcast Clouds18°C7 mph, S100%10000m1011hPa64%
26-Jun-2024 03:00Overcast Clouds17°C4 mph, SW100%10000m1010hPa65%
26-Jun-2024 06:00Overcast Clouds18°C2 mph, E100%10000m1009hPa67%
26-Jun-2024 09:00Overcast Clouds15°C7 mph, E99%10000m1009hPa71%
26-Jun-2024 12:00Overcast Clouds12°C7 mph, E90%10000m1009hPa81%
26-Jun-2024 15:00Broken Clouds13°C7 mph, E70%10000m1010hPa81%
26-Jun-2024 18:00Broken Clouds16°C9 mph, SE68%10000m1010hPa69%
26-Jun-2024 21:00Overcast Clouds17°C11 mph, SE90%10000m1010hPa61%
27-Jun-2024 00:00Broken Clouds19°C13 mph, SE57%10000m1009hPa47%
27-Jun-2024 03:00Clear Sky20°C11 mph, SE0%10000m1008hPa44%
27-Jun-2024 06:00Few Clouds19°C7 mph, E16%10000m1007hPa52%
27-Jun-2024 09:00Scattered Clouds15°C7 mph, E35%10000m1008hPa67%
27-Jun-2024 12:00Light Rain14°C7 mph, SE64%10000m1007hPa79%
27-Jun-2024 15:00Overcast Clouds13°C4 mph, SE99%10000m1007hPa79%
27-Jun-2024 18:00Overcast Clouds13°C9 mph, SE100%10000m1008hPa71%
27-Jun-2024 21:00Overcast Clouds14°C7 mph, SE100%10000m1009hPa66%
28-Jun-2024 00:00Overcast Clouds16°C7 mph, SE100%10000m1008hPa59%
28-Jun-2024 03:00Overcast Clouds16°C9 mph, SE100%10000m1008hPa58%
28-Jun-2024 06:00Overcast Clouds15°C7 mph, SE100%10000m1008hPa62%
28-Jun-2024 09:00Overcast Clouds14°C7 mph, E95%10000m1008hPa67%
28-Jun-2024 12:00Broken Clouds10°C4 mph, E75%10000m1009hPa82%
28-Jun-2024 15:00Overcast Clouds10°C4 mph, SW87%10000m1010hPa85%
28-Jun-2024 18:00Overcast Clouds11°C7 mph, SW94%10000m1011hPa81%
28-Jun-2024 21:00Overcast Clouds11°C2 mph, SW100%10000m1012hPa77%
29-Jun-2024 00:00Overcast Clouds13°C4 mph, S100%10000m1012hPa63%
29-Jun-2024 03:00Overcast Clouds14°C4 mph, SW100%10000m1011hPa59%
29-Jun-2024 06:00Overcast Clouds16°C2 mph, NE91%10000m1010hPa54%
29-Jun-2024 09:00Broken Clouds14°C4 mph, N83%10000m1010hPa64%
29-Jun-2024 12:00Overcast Clouds14°C7 mph, NE91%10000m1009hPa60%
29-Jun-2024 15:00Overcast Clouds14°C7 mph, NE100%10000m1009hPa67%
29-Jun-2024 18:00Overcast Clouds16°C7 mph, NE100%10000m1009hPa64%
29-Jun-2024 21:00Overcast Clouds18°C4 mph, NE88%10000m1009hPa53%
30-Jun-2024 00:00Overcast Clouds19°C4 mph, SE87%10000m1008hPa46%
30-Jun-2024 03:00Overcast Clouds19°C4 mph, SW96%10000m1008hPa51%
30-Jun-2024 06:00Overcast Clouds17°C4 mph, W98%10000m1008hPa61%
30-Jun-2024 09:00Overcast Clouds14°C4 mph, N96%10000m1009hPa65%
30-Jun-2024 12:00Broken Clouds13°C7 mph, NE83%10000m1009hPa72%